createdAt,value
2018-07-23T00:03:27.397Z,97059.36
2018-07-23T00:08:22.180Z,97056.75
2018-07-23T00:13:16.855Z,97050.92
2018-07-23T00:18:11.526Z,97050.75
2018-07-23T00:23:06.235Z,97059.72
2018-07-23T00:28:00.711Z,97056.88
2018-07-23T00:32:55.325Z,97053.58
2018-07-23T00:37:49.947Z,97046.27
2018-07-23T00:42:44.547Z,97050.95
2018-07-23T00:47:39.354Z,97041.96
2018-07-23T00:52:34.064Z,97047.62
2018-07-23T00:57:28.690Z,97039.15
2018-07-23T01:02:23.359Z,97034.65
2018-07-23T01:07:18.263Z,97028.52
2018-07-23T01:12:13.176Z,97030.36
2018-07-23T01:17:07.796Z,97027.86
2018-07-23T01:22:02.463Z,97020.86
2018-07-23T01:26:57.067Z,97024.18
2018-07-23T01:31:51.723Z,97022.35
2018-07-23T01:36:46.321Z,97026.48
2018-07-23T01:41:40.951Z,97036.41
2018-07-23T01:46:35.536Z,97037.10
2018-07-23T01:51:30.144Z,97033.12
2018-07-23T01:56:24.730Z,97038.41
2018-07-23T02:01:19.378Z,97036.13
2018-07-23T02:06:14.032Z,97037.09
2018-07-23T02:11:08.896Z,97035.42
2018-07-23T02:16:03.503Z,97041.88
2018-07-23T02:20:58.160Z,97037.38
2018-07-23T02:25:52.773Z,97033.75
2018-07-23T02:30:47.394Z,97033.36
2018-07-23T02:35:42.068Z,97037.15
2018-07-23T02:40:36.675Z,97036.01
2018-07-23T02:45:31.317Z,97037.69
2018-07-23T02:50:25.964Z,97032.07
2018-07-23T02:55:20.674Z,97035.36
2018-07-23T03:00:15.277Z,97031.88
2018-07-23T03:05:09.935Z,97032.03
2018-07-23T03:10:05.075Z,97034.85
2018-07-23T03:14:59.651Z,97042.95
2018-07-23T03:19:54.224Z,97054.70
2018-07-23T03:24:48.770Z,97055.05
2018-07-23T03:29:43.401Z,97062.70
2018-07-23T03:34:38.009Z,97068.52
2018-07-23T03:39:32.583Z,97072.30
2018-07-23T03:44:27.415Z,97084.91
2018-07-23T03:49:22.244Z,97078.46
2018-07-23T03:54:17.241Z,97090.90
2018-07-23T03:59:12.733Z,97094.08
2018-07-23T04:04:07.725Z,97094.98
2018-07-23T04:09:02.365Z,97093.72
2018-07-23T04:13:56.971Z,97100.05
2018-07-23T04:18:51.620Z,97103.58
2018-07-23T04:23:46.293Z,97106.38
2018-07-23T04:28:40.822Z,97106.78
2018-07-23T04:33:35.415Z,97113.41
2018-07-23T04:38:30.146Z,97114.57
2018-07-23T04:43:24.834Z,97120.55
2018-07-23T04:48:19.498Z,97119.38
2018-07-23T04:53:14.105Z,97120.61
2018-07-23T04:58:08.739Z,97127.03
2018-07-23T05:03:03.375Z,97124.57
2018-07-23T05:07:57.982Z,97118.30
2018-07-23T05:12:52.603Z,97121.61
2018-07-23T05:17:47.227Z,97123.44
2018-07-23T05:22:41.835Z,97130.26
2018-07-23T05:27:36.467Z,97121.63
2018-07-23T05:32:31.095Z,97130.80
2018-07-23T05:37:25.752Z,97131.78
2018-07-23T05:42:20.403Z,97138.95
2018-07-23T05:47:15.003Z,97146.94
2018-07-23T05:52:09.650Z,97143.58
2018-07-23T05:57:04.368Z,97142.06
2018-07-23T06:01:59.077Z,97144.19
2018-07-23T06:06:53.796Z,97150.16
2018-07-23T06:11:49.371Z,97145.11
2018-07-23T06:16:43.939Z,97152.08
2018-07-23T06:21:38.586Z,97154.30
2018-07-23T06:26:33.271Z,97156.73
2018-07-23T06:31:27.978Z,97159.05
2018-07-23T06:36:22.613Z,97170.66
2018-07-23T06:41:17.271Z,97177.52
2018-07-23T06:46:11.937Z,97178.16
2018-07-23T06:51:06.587Z,97180.19
2018-07-23T06:56:01.303Z,97187.06
2018-07-23T07:00:56.935Z,97187.23
2018-07-23T07:05:51.563Z,97189.41
2018-07-23T07:10:46.220Z,97194.57
2018-07-23T07:15:40.914Z,97193.76
2018-07-23T07:20:35.551Z,97198.08
2018-07-23T07:25:30.300Z,97191.83
2018-07-23T07:30:24.826Z,97185.48
2018-07-23T07:35:19.439Z,97193.38
2018-07-23T07:40:14.028Z,97190.34
2018-07-23T07:45:08.827Z,97188.06
2018-07-23T07:50:03.472Z,97196.95
2018-07-23T07:54:58.100Z,97204.45
2018-07-23T07:59:52.752Z,97198.92
2018-07-23T08:04:47.377Z,97199.86
2018-07-23T08:09:42.028Z,97199.66
2018-07-23T08:14:36.715Z,97201.17
2018-07-23T08:19:31.411Z,97202.89
2018-07-23T08:24:26.040Z,97207.47
2018-07-23T08:29:20.640Z,97216.45
2018-07-23T08:34:15.234Z,97213.17
2018-07-23T08:39:11.417Z,97226.17
2018-07-23T08:44:06.160Z,97226.25
2018-07-23T08:49:00.716Z,97222.80
2018-07-23T08:53:55.331Z,97230.44
2018-07-23T08:58:49.944Z,97232.58
2018-07-23T09:03:44.527Z,97226.42
2018-07-23T09:08:39.209Z,97238.48
2018-07-23T09:13:33.734Z,97238.19
2018-07-23T09:18:28.338Z,97246.10
2018-07-23T09:23:22.930Z,97245.09
2018-07-23T09:28:18.180Z,97245.69
2018-07-23T09:33:12.732Z,97245.47
2018-07-23T09:38:07.435Z,97243.28
2018-07-23T09:43:02.231Z,97241.17
2018-07-23T09:47:56.867Z,97250.80
2018-07-23T09:52:51.476Z,97250.13
2018-07-23T09:57:46.112Z,97245.84
2018-07-23T10:02:40.751Z,97247.88
2018-07-23T10:07:35.389Z,97241.71
2018-07-23T10:12:30.059Z,97240.91
2018-07-23T10:17:24.678Z,97239.73
2018-07-23T10:22:19.367Z,97226.22
2018-07-23T10:27:14.015Z,97222.82
2018-07-23T10:32:08.682Z,97221.48
2018-07-23T10:37:03.540Z,97219.40
2018-07-23T10:41:58.146Z,97214.84
2018-07-23T10:46:52.823Z,97219.61
2018-07-23T10:51:47.484Z,97214.98
2018-07-23T10:56:42.098Z,97220.56
2018-07-23T11:01:36.749Z,97215.38
2018-07-23T11:06:31.516Z,97216.63
2018-07-23T11:11:26.112Z,97212.17
2018-07-23T11:16:20.775Z,97215.06
2018-07-23T11:21:15.384Z,97212.46
2018-07-23T11:26:10.042Z,97210.42
2018-07-23T11:31:04.785Z,97208.67
2018-07-23T11:35:59.392Z,97207.12
2018-07-23T11:40:54.037Z,97194.08
2018-07-23T11:45:48.755Z,97194.23
2018-07-23T11:50:43.379Z,97191.94
2018-07-23T11:55:38.083Z,97183.65
2018-07-23T12:00:32.548Z,97185.40
2018-07-23T12:05:27.125Z,97178.17
2018-07-23T12:10:21.756Z,97169.62
2018-07-23T12:15:16.413Z,97171.59
2018-07-23T12:20:10.982Z,97165.03
2018-07-23T12:25:05.649Z,97158.86
2018-07-23T12:30:00.216Z,97151.21
2018-07-23T12:34:54.796Z,97147.70
2018-07-23T12:39:49.466Z,97154.27
2018-07-23T12:44:43.969Z,97165.78
2018-07-23T12:49:38.648Z,97161.59
2018-07-23T12:54:33.294Z,97165.63
2018-07-23T12:59:27.891Z,97159.95
2018-07-23T13:04:22.596Z,97166.62
2018-07-23T13:09:17.274Z,97171.89
2018-07-23T13:14:11.861Z,97176.77
2018-07-23T13:19:06.658Z,97168.59
2018-07-23T13:24:01.324Z,97169.49
2018-07-23T13:28:55.940Z,97171.39
2018-07-23T13:33:50.548Z,97165.38
2018-07-23T13:38:45.185Z,97167.70
2018-07-23T13:43:39.943Z,97169.05
2018-07-23T13:48:34.575Z,97159.34
2018-07-23T13:53:29.257Z,97151.79
2018-07-23T13:58:23.831Z,97149.62
2018-07-23T14:03:18.463Z,97145.38
2018-07-23T14:08:13.065Z,97144.31
2018-07-23T14:13:07.788Z,97140.20
2018-07-23T14:18:02.360Z,97138.72
2018-07-23T14:22:56.992Z,97136.05
2018-07-23T14:27:51.567Z,97128.19
2018-07-23T14:32:46.164Z,97119.63
2018-07-23T14:37:40.858Z,97116.02
2018-07-23T14:42:35.444Z,97112.78
2018-07-23T14:47:30.319Z,97106.63
2018-07-23T14:52:24.909Z,97106.72
2018-07-23T14:57:19.519Z,97103.47
2018-07-23T15:02:14.163Z,97099.13
2018-07-23T15:07:09.207Z,97100.45
2018-07-23T15:12:03.813Z,97096.98
2018-07-23T15:16:58.445Z,97095.75
2018-07-23T15:21:53.084Z,97093.78
2018-07-23T15:26:47.657Z,97084.56
2018-07-23T15:31:42.276Z,97079.52
2018-07-23T15:36:36.862Z,97082.28
2018-07-23T15:41:31.518Z,97084.86
2018-07-23T15:46:26.171Z,97086.95
2018-07-23T15:51:20.828Z,97089.33
2018-07-23T15:56:15.753Z,97076.58
2018-07-23T16:01:10.554Z,97078.36
2018-07-23T16:06:05.599Z,97076.19
2018-07-23T16:11:00.206Z,97084.38
2018-07-23T16:15:54.863Z,97079.19
2018-07-23T16:20:49.146Z,97082.72
2018-07-23T16:25:43.772Z,97081.67
2018-07-23T16:30:38.394Z,97074.95
2018-07-23T16:35:36.051Z,97076.44
2018-07-23T16:40:30.327Z,97071.38
2018-07-23T16:45:24.972Z,97074.45
2018-07-23T16:50:20.928Z,97067.77
2018-07-23T16:55:15.563Z,97075.61
2018-07-23T17:00:10.157Z,97070.97
2018-07-23T17:05:04.914Z,97075.09
2018-07-23T17:09:59.517Z,97071.73
2018-07-23T17:14:54.209Z,97081.66
2018-07-23T17:19:48.887Z,97072.36
2018-07-23T17:24:43.547Z,97079.18
2018-07-23T17:29:38.158Z,97079.48
2018-07-23T17:34:32.763Z,97072.36
2018-07-23T17:39:27.326Z,97069.13
2018-07-23T17:44:21.903Z,97066.37
2018-07-23T17:49:16.538Z,97062.97
2018-07-23T17:54:11.151Z,97058.83
2018-07-23T17:59:05.750Z,97061.17
2018-07-23T18:04:00.464Z,97064.30
2018-07-23T18:08:55.427Z,97072.34
2018-07-23T18:13:49.699Z,97078.01
2018-07-23T18:18:44.412Z,97076.00
2018-07-23T18:23:39.058Z,97074.52
2018-07-23T18:28:33.756Z,97080.34
2018-07-23T18:33:28.348Z,97086.09
2018-07-23T18:38:23.013Z,97088.59
2018-07-23T18:43:17.591Z,97092.20
2018-07-23T18:50:30.048Z,97097.07
2018-07-23T18:55:24.712Z,97103.19
2018-07-23T19:00:19.380Z,97107.64
2018-07-23T19:05:14.074Z,97116.45
2018-07-23T19:10:10.473Z,97113.69
2018-07-23T19:15:06.270Z,97107.00
2018-07-23T19:20:00.914Z,97117.80
2018-07-23T19:24:55.597Z,97121.34
2018-07-23T19:29:50.396Z,97121.80
2018-07-23T19:34:45.034Z,97130.75
2018-07-23T19:39:39.632Z,97130.02
2018-07-23T19:44:34.293Z,97132.00
2018-07-23T19:49:28.934Z,97134.59
2018-07-23T19:54:23.530Z,97142.02
2018-07-23T19:59:18.198Z,97141.88
2018-07-23T20:04:12.922Z,97152.69
2018-07-23T20:09:10.454Z,97147.22
2018-07-23T20:14:05.142Z,97152.44
2018-07-23T20:18:59.917Z,97151.45
2018-07-23T20:23:54.570Z,97153.51
2018-07-23T20:28:49.224Z,97146.69
2018-07-23T20:33:43.643Z,97147.25
2018-07-23T20:38:38.620Z,97147.00
2018-07-23T20:43:33.736Z,97148.98
2018-07-23T20:48:28.411Z,97149.94
2018-07-23T20:53:23.162Z,97150.58
2018-07-23T20:58:18.571Z,97155.78
2018-07-23T21:03:13.190Z,97152.29
2018-07-23T21:08:07.884Z,97149.78
2018-07-23T21:13:02.788Z,97162.38
2018-07-23T21:17:58.203Z,97149.77
2018-07-23T21:22:52.864Z,97149.66
2018-07-23T21:27:47.640Z,97151.31
2018-07-23T21:32:42.231Z,97152.66
2018-07-23T21:37:36.859Z,97148.84
2018-07-23T21:42:31.538Z,97153.26
2018-07-23T21:47:26.197Z,97149.87
2018-07-23T21:52:20.928Z,97148.44
2018-07-23T21:57:15.587Z,97158.34
2018-07-23T22:02:10.359Z,97156.59
2018-07-23T22:07:05.080Z,97154.84
2018-07-23T22:11:59.765Z,97153.86
2018-07-23T22:16:54.415Z,97150.65
2018-07-23T22:21:49.145Z,97150.45
2018-07-23T22:26:43.987Z,97147.34
2018-07-23T22:31:38.681Z,97148.12
2018-07-23T22:36:33.342Z,97149.00
2018-07-23T22:41:27.669Z,97150.66
2018-07-23T22:46:22.972Z,97143.72
2018-07-23T22:51:17.633Z,97138.72
2018-07-23T22:56:12.271Z,97133.08
2018-07-23T23:01:07.156Z,97130.09
2018-07-23T23:06:01.816Z,97125.45
2018-07-23T23:10:56.502Z,97124.30
2018-07-23T23:15:51.103Z,97119.16
2018-07-23T23:20:45.734Z,97109.19
2018-07-23T23:25:40.697Z,97110.52
2018-07-23T23:30:35.285Z,97101.35
2018-07-23T23:35:29.951Z,97107.50
2018-07-23T23:40:24.664Z,97105.02
2018-07-23T23:45:19.329Z,97106.67
2018-07-23T23:50:13.938Z,97098.40
2018-07-23T23:55:08.536Z,97106.69
